createdAt,value
2019-02-15T00:00:14.341Z,8.10
2019-02-15T00:01:14.318Z,8.23
2019-02-15T00:02:14.294Z,8.14
2019-02-15T00:03:14.269Z,8.23
2019-02-15T00:04:14.313Z,8.16
2019-02-15T00:05:14.221Z,8.28
2019-02-15T00:06:14.234Z,8.32
2019-02-15T00:07:14.228Z,8.37
2019-02-15T00:08:14.184Z,8.46
2019-02-15T00:09:14.377Z,8.39
2019-02-15T00:10:14.118Z,8.49
2019-02-15T00:11:14.094Z,8.42
2019-02-15T00:12:14.084Z,8.52
2019-02-15T00:13:14.080Z,8.52
2019-02-15T00:14:14.053Z,8.56
2019-02-15T00:15:14.022Z,8.67
2019-02-15T00:16:14.031Z,8.67
2019-02-15T00:17:13.947Z,8.65
2019-02-15T00:18:13.931Z,8.65
2019-02-15T00:19:13.921Z,8.67
2019-02-15T00:20:13.892Z,8.74
2019-02-15T00:21:13.861Z,8.78
2019-02-15T00:22:13.874Z,8.88
2019-02-15T00:23:13.818Z,8.88
2019-02-15T00:24:13.799Z,8.88
2019-02-15T00:25:13.774Z,8.83
2019-02-15T00:26:13.749Z,8.78
2019-02-15T00:27:13.726Z,8.80
2019-02-15T00:28:13.709Z,8.83
2019-02-15T00:29:13.682Z,8.81
2019-02-15T00:30:13.736Z,8.81
2019-02-15T00:31:13.634Z,8.81
2019-02-15T00:32:13.613Z,8.81
2019-02-15T00:33:13.624Z,8.90
2019-02-15T00:34:13.623Z,8.92
2019-02-15T00:35:13.546Z,8.90
2019-02-15T00:36:13.526Z,8.83
2019-02-15T00:37:13.499Z,8.89
2019-02-15T00:38:13.481Z,8.86
2019-02-15T00:39:13.478Z,8.88
2019-02-15T00:40:13.471Z,8.83
2019-02-15T00:41:13.436Z,8.78
2019-02-15T00:42:13.396Z,8.85
2019-02-15T00:43:21.955Z,8.80
2019-02-15T00:44:13.378Z,8.81
2019-02-15T00:45:13.319Z,8.86
2019-02-15T00:46:13.315Z,8.77
2019-02-15T00:47:13.278Z,8.75
2019-02-15T00:48:13.257Z,8.75
2019-02-15T00:49:13.228Z,8.72
2019-02-15T00:50:13.212Z,8.78
2019-02-15T00:51:13.191Z,8.77
2019-02-15T00:52:13.161Z,8.77
2019-02-15T00:53:13.165Z,8.80
2019-02-15T00:54:13.163Z,8.70
2019-02-15T00:55:13.110Z,8.74
2019-02-15T00:56:13.081Z,8.72
2019-02-15T00:57:13.069Z,8.68
2019-02-15T00:58:13.035Z,8.67
2019-02-15T00:59:13.012Z,8.78
2019-02-15T01:00:13.001Z,8.67
2019-02-15T01:01:12.986Z,8.71
2019-02-15T01:02:12.939Z,8.77
2019-02-15T01:03:12.928Z,8.89
2019-02-15T01:04:12.906Z,8.93
2019-02-15T01:05:12.885Z,8.95
2019-02-15T01:06:12.856Z,8.89
2019-02-15T01:07:12.825Z,8.93
2019-02-15T01:08:12.807Z,8.96
2019-02-15T01:09:12.791Z,9.03
2019-02-15T01:10:12.770Z,9.04
2019-02-15T01:11:12.743Z,9.04
2019-02-15T01:12:12.720Z,9.06
2019-02-15T01:13:12.738Z,9.01
2019-02-15T01:14:12.678Z,8.93
2019-02-15T01:15:12.678Z,9.09
2019-02-15T01:16:12.635Z,9.06
2019-02-15T01:17:12.615Z,8.90
2019-02-15T01:18:12.581Z,8.93
2019-02-15T01:19:12.573Z,8.93
2019-02-15T01:20:12.543Z,8.90
2019-02-15T01:21:12.530Z,8.95
2019-02-15T01:22:12.505Z,8.92
2019-02-15T01:23:12.478Z,8.86
2019-02-15T01:24:12.454Z,8.89
2019-02-15T01:25:12.428Z,8.88
2019-02-15T01:26:12.415Z,8.85
2019-02-15T01:27:12.382Z,8.83
2019-02-15T01:28:12.360Z,8.86
2019-02-15T01:29:12.389Z,8.86
2019-02-15T01:30:12.318Z,8.89
2019-02-15T01:31:12.301Z,8.78
2019-02-15T01:32:12.272Z,8.81
2019-02-15T01:33:12.252Z,8.85
2019-02-15T01:34:12.232Z,8.81
2019-02-15T01:35:12.231Z,8.86
2019-02-15T01:36:12.211Z,8.81
2019-02-15T01:37:12.169Z,8.77
2019-02-15T01:38:12.141Z,8.81
2019-02-15T01:39:12.120Z,8.77
2019-02-15T01:40:12.096Z,8.75
2019-02-15T01:41:12.072Z,8.75
2019-02-15T01:42:12.052Z,8.81
2019-02-15T01:43:12.037Z,8.80
2019-02-15T01:44:12.022Z,8.75
2019-02-15T01:45:11.985Z,8.78
2019-02-15T01:46:11.971Z,8.70
2019-02-15T01:47:11.940Z,8.72
2019-02-15T01:48:11.931Z,8.71
2019-02-15T01:49:11.898Z,8.77
2019-02-15T01:50:11.892Z,8.71
2019-02-15T01:51:11.851Z,8.60
2019-02-15T01:52:11.828Z,8.68
2019-02-15T01:53:11.811Z,8.57
2019-02-15T01:54:11.786Z,8.59
2019-02-15T01:55:11.769Z,8.52
2019-02-15T01:56:11.741Z,8.49
2019-02-15T01:57:11.727Z,8.49
2019-02-15T01:58:11.705Z,8.56
2019-02-15T01:59:11.668Z,8.49
2019-02-15T02:00:11.674Z,8.53
2019-02-15T02:01:11.641Z,8.47
2019-02-15T02:02:11.626Z,8.49
2019-02-15T02:03:11.577Z,8.50
2019-02-15T02:04:11.564Z,8.56
2019-02-15T02:05:11.537Z,8.59
2019-02-15T02:06:11.533Z,8.57
2019-02-15T02:07:11.499Z,8.59
2019-02-15T02:08:11.517Z,8.57
2019-02-15T02:09:11.482Z,8.65
2019-02-15T02:10:11.423Z,8.59
2019-02-15T02:11:11.406Z,8.63
2019-02-15T02:12:11.382Z,8.65
2019-02-15T02:13:11.361Z,8.70
2019-02-15T02:14:11.348Z,8.72
2019-02-15T02:15:11.317Z,8.63
2019-02-15T02:16:11.325Z,8.75
2019-02-15T02:17:11.266Z,8.63
2019-02-15T02:18:11.305Z,8.65
2019-02-15T02:19:11.233Z,8.77
2019-02-15T02:20:11.203Z,8.67
2019-02-15T02:21:11.180Z,8.62
2019-02-15T02:22:11.167Z,8.67
2019-02-15T02:23:11.157Z,8.53
2019-02-15T02:24:11.121Z,8.53
2019-02-15T02:25:11.097Z,8.55
2019-02-15T02:26:11.088Z,8.49
2019-02-15T02:27:11.067Z,8.50
2019-02-15T02:28:11.028Z,8.46
2019-02-15T02:29:11.011Z,8.46
2019-02-15T02:30:10.997Z,8.50
2019-02-15T02:31:10.969Z,8.47
2019-02-15T02:32:10.953Z,8.49
2019-02-15T02:33:10.933Z,8.46
2019-02-15T02:34:10.895Z,8.42
2019-02-15T02:35:10.902Z,8.50
2019-02-15T02:36:10.854Z,8.37
2019-02-15T02:37:10.822Z,8.52
2019-02-15T02:38:10.815Z,8.50
2019-02-15T02:39:10.782Z,8.55
2019-02-15T02:40:10.755Z,8.46
2019-02-15T02:41:10.734Z,8.44
2019-02-15T02:42:10.712Z,8.28
2019-02-15T02:43:10.722Z,8.29
2019-02-15T02:44:10.671Z,8.32
2019-02-15T02:45:10.645Z,8.39
2019-02-15T02:46:10.658Z,8.39
2019-02-15T02:47:10.602Z,8.34
2019-02-15T02:48:10.577Z,8.32
2019-02-15T02:49:10.558Z,8.35
2019-02-15T02:50:10.533Z,8.28
2019-02-15T02:51:10.508Z,8.34
2019-02-15T02:52:10.492Z,8.37
2019-02-15T02:53:10.536Z,8.37
2019-02-15T02:54:10.446Z,8.34
2019-02-15T02:55:10.432Z,8.29
2019-02-15T02:56:10.412Z,8.37
2019-02-15T02:57:10.401Z,8.39
2019-02-15T02:58:10.357Z,8.37
2019-02-15T02:59:10.368Z,8.31
2019-02-15T03:00:10.324Z,8.29
2019-02-15T03:01:10.295Z,8.37
2019-02-15T03:02:10.273Z,8.44
2019-02-15T03:03:10.243Z,8.44
2019-02-15T03:04:10.230Z,8.39
2019-02-15T03:05:10.224Z,8.50
2019-02-15T03:06:10.177Z,8.50
2019-02-15T03:07:10.167Z,8.53
2019-02-15T03:08:10.135Z,8.57
2019-02-15T03:09:10.119Z,8.56
2019-02-15T03:10:10.120Z,8.47
2019-02-15T03:11:10.093Z,8.42
2019-02-15T03:12:10.047Z,8.57
2019-02-15T03:13:10.020Z,8.42
2019-02-15T03:14:11.826Z,8.56
2019-02-15T03:15:10.014Z,8.52
2019-02-15T03:16:09.949Z,8.55
2019-02-15T03:17:09.933Z,8.50
2019-02-15T03:18:09.913Z,8.47
2019-02-15T03:19:09.907Z,8.42
2019-02-15T03:20:09.864Z,8.41
2019-02-15T03:21:09.852Z,8.37
2019-02-15T03:22:09.820Z,8.41
2019-02-15T03:23:09.791Z,8.41
2019-02-15T03:24:09.774Z,8.34
2019-02-15T03:25:09.775Z,8.32
2019-02-15T03:26:09.738Z,8.38
2019-02-15T03:27:09.702Z,8.41
2019-02-15T03:28:09.706Z,8.37
2019-02-15T03:29:09.693Z,8.34
2019-02-15T03:30:09.684Z,8.32
2019-02-15T03:31:09.625Z,8.29
2019-02-15T03:32:09.617Z,8.28
2019-02-15T03:33:09.588Z,8.24
2019-02-15T03:34:09.604Z,8.13
2019-02-15T03:35:09.537Z,8.19
2019-02-15T03:36:09.505Z,8.16
2019-02-15T03:37:09.498Z,8.19
2019-02-15T03:38:09.486Z,8.19
2019-02-15T03:39:09.441Z,8.19
2019-02-15T03:40:09.412Z,8.13
2019-02-15T03:41:09.394Z,8.16
2019-02-15T03:42:09.405Z,8.19
2019-02-15T03:43:09.344Z,8.13
2019-02-15T03:44:09.321Z,8.10
2019-02-15T03:45:09.306Z,8.16
2019-02-15T03:46:09.291Z,8.16
2019-02-15T03:47:09.258Z,8.16
2019-02-15T03:48:09.244Z,8.06
2019-02-15T03:49:09.218Z,8.12
2019-02-15T03:50:09.194Z,8.14
2019-02-15T03:51:09.168Z,8.17
2019-02-15T03:52:09.156Z,8.16
2019-02-15T03:53:09.135Z,8.17
2019-02-15T03:54:09.115Z,8.19
2019-02-15T03:55:09.088Z,8.16
2019-02-15T03:56:09.055Z,8.02
2019-02-15T03:57:09.054Z,8.06
2019-02-15T03:58:09.014Z,8.06
2019-02-15T03:59:08.993Z,7.99
2019-02-15T04:00:08.996Z,8.05
2019-02-15T04:01:08.947Z,8.06
2019-02-15T04:02:08.928Z,8.06
2019-02-15T04:03:08.896Z,8.04
2019-02-15T04:04:08.921Z,8.09
2019-02-15T04:05:08.853Z,8.12
2019-02-15T04:06:08.846Z,8.10
2019-02-15T04:07:08.821Z,8.13
2019-02-15T04:08:08.797Z,8.16
2019-02-15T04:09:08.774Z,8.16
2019-02-15T04:10:08.742Z,8.12
2019-02-15T04:11:08.722Z,8.13
2019-02-15T04:12:08.699Z,8.19
2019-02-15T04:13:08.675Z,8.17
2019-02-15T04:14:08.667Z,8.19
2019-02-15T04:15:08.636Z,8.24
2019-02-15T04:16:08.608Z,8.19
2019-02-15T04:17:08.599Z,8.31
2019-02-15T04:18:08.563Z,8.35
2019-02-15T04:19:08.550Z,8.38
2019-02-15T04:20:08.519Z,8.31
2019-02-15T04:21:08.494Z,8.32
2019-02-15T04:22:08.484Z,8.44
2019-02-15T04:23:08.462Z,8.50
2019-02-15T04:24:08.443Z,8.44
2019-02-15T04:25:08.427Z,8.47
2019-02-15T04:26:08.375Z,8.47
2019-02-15T04:27:08.372Z,8.49
2019-02-15T04:28:08.340Z,8.41
2019-02-15T04:29:08.330Z,8.47
2019-02-15T04:30:08.298Z,8.46
2019-02-15T04:31:08.278Z,8.47
2019-02-15T04:32:08.254Z,8.50
2019-02-15T04:33:08.228Z,8.50
2019-02-15T04:34:08.201Z,8.50
2019-02-15T04:35:08.175Z,8.53
2019-02-15T04:36:08.151Z,8.57
2019-02-15T04:37:08.143Z,8.57
2019-02-15T04:38:08.129Z,8.57
2019-02-15T04:39:08.096Z,8.56
2019-02-15T04:40:08.088Z,8.46
2019-02-15T04:41:08.058Z,8.47
2019-02-15T04:42:08.041Z,8.49
2019-02-15T04:43:08.031Z,8.52
2019-02-15T04:44:07.981Z,8.47
2019-02-15T04:45:07.966Z,8.44
2019-02-15T04:46:07.938Z,8.46
2019-02-15T04:47:07.909Z,8.52
2019-02-15T04:48:07.894Z,8.50
2019-02-15T04:49:07.870Z,8.55
2019-02-15T04:50:07.855Z,8.46
2019-02-15T04:51:07.826Z,8.47
2019-02-15T04:52:07.802Z,8.47
2019-02-15T04:53:07.783Z,8.46
2019-02-15T04:54:07.754Z,8.44
2019-02-15T04:55:07.728Z,8.47
2019-02-15T04:56:07.741Z,8.38
2019-02-15T04:57:07.693Z,8.44
2019-02-15T04:58:07.661Z,8.44
2019-02-15T04:59:07.672Z,8.34
2019-02-15T05:00:07.620Z,8.34
2019-02-15T05:01:07.611Z,8.34
2019-02-15T05:02:07.571Z,8.50
2019-02-15T05:03:07.560Z,8.50
2019-02-15T05:04:07.561Z,8.53
2019-02-15T05:05:07.522Z,8.47
2019-02-15T05:06:07.501Z,8.50
2019-02-15T05:07:07.487Z,8.50
2019-02-15T05:08:07.442Z,8.47
2019-02-15T05:09:07.418Z,8.50
2019-02-15T05:10:07.406Z,8.41
2019-02-15T05:11:07.370Z,8.53
2019-02-15T05:12:07.348Z,8.39
2019-02-15T05:13:07.337Z,8.50
2019-02-15T05:14:07.320Z,8.50
2019-02-15T05:15:07.281Z,8.44
2019-02-15T05:16:07.255Z,8.44
2019-02-15T05:17:07.244Z,8.35
2019-02-15T05:18:07.217Z,8.31
2019-02-15T05:19:07.194Z,8.37
2019-02-15T05:20:07.183Z,8.38
2019-02-15T05:21:07.172Z,8.32
2019-02-15T05:22:07.126Z,8.28
2019-02-15T05:23:07.114Z,8.23
2019-02-15T05:24:07.083Z,8.23
2019-02-15T05:25:07.056Z,8.23
2019-02-15T05:26:07.035Z,8.20
2019-02-15T05:27:07.012Z,8.21
2019-02-15T05:28:08.965Z,8.17
2019-02-15T05:29:06.967Z,8.16
2019-02-15T05:30:06.944Z,8.17
2019-02-15T05:31:06.934Z,8.10
2019-02-15T05:32:06.913Z,8.10
2019-02-15T05:33:06.878Z,8.16
2019-02-15T05:34:06.854Z,8.09
2019-02-15T05:35:06.855Z,8.05
2019-02-15T05:36:06.817Z,8.04
2019-02-15T05:37:06.793Z,8.02
2019-02-15T05:38:06.775Z,7.99
2019-02-15T05:39:06.741Z,7.92
2019-02-15T05:40:06.735Z,7.88
2019-02-15T05:41:06.698Z,7.86
2019-02-15T05:42:06.673Z,7.83
2019-02-15T05:43:06.653Z,7.78
2019-02-15T05:44:06.642Z,7.81
2019-02-15T05:45:06.615Z,7.81
2019-02-15T05:46:06.585Z,7.73
2019-02-15T05:47:06.560Z,7.66
2019-02-15T05:48:06.541Z,7.62
2019-02-15T05:49:06.521Z,7.61
2019-02-15T05:50:06.501Z,7.60
2019-02-15T05:51:06.475Z,7.52
2019-02-15T05:52:06.474Z,7.44
2019-02-15T05:53:06.429Z,7.43
2019-02-15T05:54:06.420Z,7.46
2019-02-15T05:55:06.385Z,7.44
2019-02-15T05:56:06.372Z,7.44
2019-02-15T05:57:06.340Z,7.29
2019-02-15T05:58:06.324Z,7.31
2019-02-15T05:59:06.313Z,7.31
2019-02-15T06:00:06.266Z,7.25
2019-02-15T06:01:06.246Z,7.10
2019-02-15T06:02:06.220Z,7.11
2019-02-15T06:03:06.204Z,7.10
2019-02-15T06:04:06.179Z,6.97
2019-02-15T06:05:06.152Z,6.96
2019-02-15T06:06:06.153Z,6.97
2019-02-15T06:07:06.124Z,6.91
2019-02-15T06:08:06.081Z,6.97
2019-02-15T06:09:06.054Z,6.85
2019-02-15T06:10:06.053Z,6.86
2019-02-15T06:11:07.833Z,6.78
2019-02-15T06:12:05.989Z,6.78
2019-02-15T06:13:05.964Z,6.75
2019-02-15T06:14:05.973Z,6.73
2019-02-15T06:15:14.840Z,6.65
2019-02-15T06:16:05.907Z,6.55
2019-02-15T06:17:05.910Z,6.52
2019-02-15T06:18:05.853Z,6.46
2019-02-15T06:19:05.824Z,6.42
2019-02-15T06:20:05.834Z,6.42
2019-02-15T06:21:05.781Z,6.42
2019-02-15T06:22:05.793Z,6.42
2019-02-15T06:23:05.739Z,6.40
2019-02-15T06:24:05.721Z,6.34
2019-02-15T06:25:05.692Z,6.25
2019-02-15T06:26:05.674Z,6.25
2019-02-15T06:27:05.668Z,6.24
2019-02-15T06:28:05.619Z,6.18
2019-02-15T06:29:05.593Z,6.09
2019-02-15T06:30:05.584Z,6.11
2019-02-15T06:31:05.544Z,6.11
2019-02-15T06:32:05.533Z,5.98
2019-02-15T06:33:05.515Z,5.95
2019-02-15T06:34:05.480Z,5.95
2019-02-15T06:35:05.456Z,5.97
2019-02-15T06:36:05.438Z,5.97
2019-02-15T06:37:05.414Z,5.85
2019-02-15T06:38:05.392Z,5.85
2019-02-15T06:39:05.371Z,5.75
2019-02-15T06:40:05.354Z,5.80
2019-02-15T06:41:05.341Z,5.84
2019-02-15T06:42:05.321Z,5.75
2019-02-15T06:43:05.287Z,5.67
2019-02-15T06:44:05.259Z,5.72
2019-02-15T06:45:05.233Z,5.75
2019-02-15T06:46:05.203Z,5.70
2019-02-15T06:47:05.181Z,5.76
2019-02-15T06:48:05.211Z,5.70
2019-02-15T06:49:05.152Z,5.72
2019-02-15T06:50:06.602Z,5.73
2019-02-15T06:51:05.080Z,5.70
2019-02-15T06:52:05.060Z,5.77
2019-02-15T06:53:05.057Z,5.73
2019-02-15T06:54:05.027Z,5.76
2019-02-15T06:55:04.979Z,5.65
2019-02-15T06:56:04.969Z,5.69
2019-02-15T06:57:04.958Z,5.72
2019-02-15T06:58:04.933Z,5.62
2019-02-15T06:59:04.929Z,5.70
2019-02-15T07:00:04.889Z,5.65
2019-02-15T07:01:04.861Z,5.61
2019-02-15T07:02:04.829Z,5.69
2019-02-15T07:03:04.809Z,5.62
2019-02-15T07:04:04.774Z,5.67
2019-02-15T07:05:04.774Z,5.70
2019-02-15T07:06:04.725Z,5.73
2019-02-15T07:07:04.694Z,5.80
2019-02-15T07:08:04.722Z,5.84
2019-02-15T07:09:04.655Z,5.85
2019-02-15T07:10:04.641Z,6.08
2019-02-15T07:11:04.638Z,6.11
2019-02-15T07:12:04.583Z,6.15
2019-02-15T07:13:04.575Z,6.27
2019-02-15T07:14:04.580Z,6.35
2019-02-15T07:15:04.528Z,6.49
2019-02-15T07:16:04.497Z,6.64
2019-02-15T07:17:04.469Z,6.68
2019-02-15T07:18:04.450Z,6.85
2019-02-15T07:19:04.442Z,6.93
2019-02-15T07:20:04.396Z,7.06
2019-02-15T07:21:04.442Z,7.15
2019-02-15T07:22:04.858Z,7.31
2019-02-15T07:23:04.321Z,7.39
2019-02-15T07:24:04.304Z,7.52
2019-02-15T07:25:04.300Z,7.52
2019-02-15T07:26:04.267Z,7.66
2019-02-15T07:27:04.250Z,7.81
2019-02-15T07:28:04.235Z,7.84
2019-02-15T07:29:04.204Z,7.96
2019-02-15T07:30:04.160Z,7.98
2019-02-15T07:31:04.139Z,8.16
2019-02-15T07:32:04.116Z,8.20
2019-02-15T07:33:04.093Z,8.41
2019-02-15T07:34:04.068Z,8.50
2019-02-15T07:35:04.063Z,8.56
2019-02-15T07:36:04.066Z,8.67
2019-02-15T07:37:04.025Z,8.70
2019-02-15T07:38:03.993Z,8.70
2019-02-15T07:39:03.947Z,8.74
2019-02-15T07:40:03.938Z,8.75
2019-02-15T07:41:03.912Z,8.71
2019-02-15T07:42:03.898Z,8.89
2019-02-15T07:43:03.859Z,8.90
2019-02-15T07:44:03.839Z,8.92
2019-02-15T07:45:03.830Z,9.11
2019-02-15T07:46:03.807Z,9.04
2019-02-15T07:47:03.780Z,9.03
2019-02-15T07:48:03.751Z,9.09
2019-02-15T07:49:03.720Z,9.15
2019-02-15T07:50:03.710Z,9.16
2019-02-15T07:51:09.497Z,9.24
2019-02-15T07:52:03.661Z,9.24
2019-02-15T07:53:03.630Z,9.23
2019-02-15T07:54:03.625Z,9.29
2019-02-15T07:55:03.612Z,9.30
2019-02-15T07:56:03.583Z,9.33
2019-02-15T07:57:03.547Z,9.42
2019-02-15T07:58:03.531Z,9.45
2019-02-15T07:59:03.519Z,9.52
2019-02-15T08:00:03.484Z,9.62
2019-02-15T08:01:03.469Z,9.62
2019-02-15T08:02:03.464Z,9.66
2019-02-15T08:03:03.448Z,9.66
2019-02-15T08:04:03.406Z,9.73
2019-02-15T08:05:03.377Z,9.77
2019-02-15T08:06:03.370Z,9.70
2019-02-15T08:07:03.329Z,9.67
2019-02-15T08:08:03.328Z,9.57
2019-02-15T08:09:03.292Z,9.72
2019-02-15T08:10:03.282Z,9.73
2019-02-15T08:11:03.244Z,9.65
2019-02-15T08:12:03.233Z,9.75
2019-02-15T08:13:03.193Z,9.77
2019-02-15T08:14:03.210Z,9.72
2019-02-15T08:15:03.159Z,9.94
2019-02-15T08:16:03.146Z,9.83
2019-02-15T08:17:03.111Z,9.96
2019-02-15T08:18:03.086Z,9.94
2019-02-15T08:19:03.070Z,10.08
2019-02-15T08:20:03.081Z,10.14
2019-02-15T08:21:03.030Z,10.23
2019-02-15T08:22:03.008Z,10.20
2019-02-15T08:23:02.988Z,10.20
2019-02-15T08:24:02.957Z,10.28
2019-02-15T08:25:03.082Z,10.31
2019-02-15T08:26:02.915Z,10.39
2019-02-15T08:27:02.893Z,10.30
2019-02-15T08:28:02.876Z,10.39
2019-02-15T08:29:02.850Z,10.43
2019-02-15T08:30:02.827Z,10.43
2019-02-15T08:31:02.836Z,10.52
2019-02-15T08:32:02.784Z,10.61
2019-02-15T08:33:02.777Z,10.49
2019-02-15T08:34:02.742Z,10.61
2019-02-15T08:35:02.720Z,10.57
2019-02-15T08:36:02.701Z,10.64
2019-02-15T08:37:02.687Z,10.57
2019-02-15T08:38:02.664Z,10.67
2019-02-15T08:39:02.637Z,10.70
2019-02-15T08:40:02.623Z,10.79
2019-02-15T08:41:02.624Z,10.87
2019-02-15T08:42:04.434Z,10.85
2019-02-15T08:43:02.554Z,10.87
2019-02-15T08:44:02.562Z,10.94
2019-02-15T08:45:02.516Z,10.98
2019-02-15T08:46:03.412Z,10.98
2019-02-15T08:47:02.468Z,11.08
2019-02-15T08:48:02.455Z,11.04
2019-02-15T08:49:02.443Z,11.18
2019-02-15T08:50:02.432Z,11.11
2019-02-15T08:51:02.384Z,11.19
2019-02-15T08:52:02.368Z,11.27
2019-02-15T08:53:02.341Z,11.25
2019-02-15T08:54:02.319Z,11.30
2019-02-15T08:55:02.303Z,11.30
2019-02-15T08:56:02.280Z,11.30
2019-02-15T08:57:02.266Z,11.30
2019-02-15T08:58:02.237Z,11.48
2019-02-15T08:59:02.221Z,11.38
2019-02-15T09:00:02.195Z,11.43
2019-02-15T09:01:02.198Z,11.46
2019-02-15T09:02:02.153Z,11.48
2019-02-15T09:03:02.133Z,11.54
2019-02-15T09:04:02.118Z,11.56
2019-02-15T09:05:02.402Z,11.62
2019-02-15T09:06:02.073Z,11.62
2019-02-15T09:07:02.057Z,11.67
2019-02-15T09:08:02.046Z,11.71
2019-02-15T09:09:02.013Z,11.64
2019-02-15T09:10:01.992Z,11.76
2019-02-15T09:11:02.490Z,11.82
2019-02-15T09:12:01.961Z,11.76
2019-02-15T09:13:01.932Z,11.87
2019-02-15T09:14:01.921Z,11.91
2019-02-15T09:15:01.894Z,11.93
2019-02-15T09:16:10.092Z,12.00
2019-02-15T09:17:01.865Z,12.05
2019-02-15T09:18:01.824Z,12.07
2019-02-15T09:19:01.804Z,12.08
2019-02-15T09:20:01.791Z,12.08
2019-02-15T09:21:01.768Z,12.11
2019-02-15T09:22:01.763Z,12.26
2019-02-15T09:23:01.757Z,12.23
2019-02-15T09:24:01.747Z,12.29
2019-02-15T09:25:01.697Z,12.29
2019-02-15T09:26:01.670Z,12.30
2019-02-15T09:27:01.647Z,12.44
2019-02-15T09:28:01.622Z,12.46
2019-02-15T09:29:01.604Z,12.46
2019-02-15T09:30:01.611Z,12.46
2019-02-15T09:31:01.576Z,12.48
2019-02-15T09:32:01.557Z,12.51
2019-02-15T09:33:01.538Z,12.58
2019-02-15T09:34:01.507Z,12.63
2019-02-15T09:35:01.482Z,12.72
2019-02-15T09:36:01.467Z,12.73
2019-02-15T09:37:01.495Z,12.81
2019-02-15T09:38:01.420Z,12.81
2019-02-15T09:39:01.411Z,12.77
2019-02-15T09:40:01.399Z,12.88
2019-02-15T09:41:01.365Z,12.93
2019-02-15T09:42:01.370Z,12.93
2019-02-15T09:43:01.321Z,13.02
2019-02-15T09:44:01.308Z,13.05
2019-02-15T09:45:01.284Z,13.04
2019-02-15T09:46:01.268Z,13.13
2019-02-15T09:47:01.246Z,13.06
2019-02-15T09:48:01.226Z,13.08
2019-02-15T09:49:01.216Z,13.16
2019-02-15T09:50:01.197Z,13.13
2019-02-15T09:51:01.169Z,13.23
2019-02-15T09:52:01.164Z,13.29
2019-02-15T09:53:01.162Z,13.30
2019-02-15T09:54:01.128Z,13.35
2019-02-15T09:55:01.090Z,13.29
2019-02-15T09:56:01.067Z,13.35
2019-02-15T09:57:01.049Z,13.40
2019-02-15T09:58:01.035Z,13.32
2019-02-15T09:59:01.012Z,13.43
2019-02-15T10:00:00.997Z,13.45
2019-02-15T10:01:00.965Z,13.45
2019-02-15T10:02:00.953Z,13.47
2019-02-15T10:03:00.957Z,13.53
2019-02-15T10:04:00.958Z,13.57
2019-02-15T10:05:00.897Z,13.51
2019-02-15T10:06:00.878Z,13.58
2019-02-15T10:07:00.857Z,13.51
2019-02-15T10:08:00.837Z,13.58
2019-02-15T10:09:00.824Z,13.65
2019-02-15T10:10:00.793Z,13.63
2019-02-15T10:11:00.781Z,13.71
2019-02-15T10:12:00.758Z,13.68
2019-02-15T10:13:00.735Z,13.83
2019-02-15T10:14:00.723Z,13.82
2019-02-15T10:15:00.702Z,13.79
2019-02-15T10:16:00.684Z,13.88
2019-02-15T10:17:00.663Z,13.93
2019-02-15T10:18:00.637Z,13.93
2019-02-15T10:19:00.623Z,13.91
2019-02-15T10:20:00.606Z,14.03
2019-02-15T10:21:00.612Z,14.11
2019-02-15T10:22:00.567Z,14.05
2019-02-15T10:23:00.569Z,14.15
2019-02-15T10:24:00.526Z,14.08
2019-02-15T10:25:00.506Z,14.08
2019-02-15T10:26:00.488Z,14.05
2019-02-15T10:27:00.469Z,14.12
2019-02-15T10:28:00.465Z,14.18
2019-02-15T10:29:00.473Z,14.19
2019-02-15T10:30:02.429Z,14.22
2019-02-15T10:31:00.395Z,14.28
2019-02-15T10:32:00.372Z,14.34
2019-02-15T10:33:00.356Z,14.21
2019-02-15T10:34:00.341Z,14.36
2019-02-15T10:35:00.351Z,14.34
2019-02-15T10:36:00.295Z,14.37
2019-02-15T10:37:00.276Z,14.34
2019-02-15T10:38:00.310Z,14.51
2019-02-15T10:39:00.237Z,14.52
2019-02-15T10:40:00.323Z,14.46
2019-02-15T10:41:00.200Z,14.49
2019-02-15T10:42:00.181Z,14.61
2019-02-15T10:43:00.161Z,14.52
2019-02-15T10:44:00.150Z,14.58
2019-02-15T10:45:00.161Z,14.55
2019-02-15T10:46:00.101Z,14.67
2019-02-15T10:47:00.090Z,14.70
2019-02-15T10:48:00.065Z,14.69
2019-02-15T10:49:00.045Z,14.70
2019-02-15T10:50:00.025Z,14.73
2019-02-15T10:51:00.006Z,14.70
2019-02-15T10:51:59.991Z,14.79
2019-02-15T10:52:59.968Z,14.73
2019-02-15T10:54:00.189Z,14.74
2019-02-15T10:54:59.932Z,14.70
2019-02-15T10:55:59.908Z,14.85
2019-02-15T10:56:59.911Z,14.85
2019-02-15T10:57:59.876Z,14.92
2019-02-15T10:58:59.850Z,14.92
2019-02-15T10:59:59.836Z,14.95
2019-02-15T11:00:59.820Z,14.96
2019-02-15T11:01:59.796Z,14.96
2019-02-15T11:02:59.779Z,14.97
2019-02-15T11:03:59.771Z,15.01
2019-02-15T11:04:59.741Z,15.08
2019-02-15T11:05:59.723Z,15.10
2019-02-15T11:06:59.702Z,15.17
2019-02-15T11:07:59.686Z,15.23
2019-02-15T11:08:59.667Z,15.25
2019-02-15T11:09:59.658Z,15.22
2019-02-15T11:10:59.627Z,15.33
2019-02-15T11:11:59.610Z,15.30
2019-02-15T11:12:59.642Z,15.32
2019-02-15T11:13:59.568Z,15.40
2019-02-15T11:14:59.555Z,15.38
2019-02-15T11:15:59.549Z,15.32
2019-02-15T11:16:59.520Z,15.33
2019-02-15T11:17:59.519Z,15.33
2019-02-15T11:18:59.499Z,15.40
2019-02-15T11:19:59.475Z,15.45
2019-02-15T11:20:59.440Z,15.51
2019-02-15T11:21:59.421Z,15.45
2019-02-15T11:22:59.405Z,15.43
2019-02-15T11:23:59.391Z,15.48
2019-02-15T11:24:59.366Z,15.47
2019-02-15T11:25:59.345Z,15.43
2019-02-15T11:26:59.331Z,15.40
2019-02-15T11:27:59.313Z,15.45
2019-02-15T11:28:59.293Z,15.54
2019-02-15T11:29:59.269Z,15.59
2019-02-15T11:30:59.256Z,15.48
2019-02-15T11:31:59.237Z,15.50
2019-02-15T11:32:59.217Z,15.50
2019-02-15T11:33:59.203Z,15.54
2019-02-15T11:34:59.188Z,15.60
2019-02-15T11:35:59.162Z,15.56
2019-02-15T11:36:59.145Z,15.59
2019-02-15T11:37:59.131Z,15.59
2019-02-15T11:38:59.104Z,15.60
2019-02-15T11:39:59.091Z,15.62
2019-02-15T11:40:59.081Z,15.66
2019-02-15T11:41:59.056Z,15.63
2019-02-15T11:42:59.036Z,15.70
2019-02-15T11:43:59.018Z,15.69
2019-02-15T11:44:59.001Z,15.70
2019-02-15T11:45:58.979Z,15.76
2019-02-15T11:46:58.986Z,15.81
2019-02-15T11:47:58.963Z,15.77
2019-02-15T11:48:58.929Z,15.85
2019-02-15T11:49:58.934Z,15.81
2019-02-15T11:50:58.890Z,15.84
2019-02-15T11:51:58.881Z,15.93
2019-02-15T11:52:58.849Z,15.91
2019-02-15T11:53:58.848Z,15.93
2019-02-15T11:54:58.816Z,15.93
2019-02-15T11:55:58.808Z,15.93
2019-02-15T11:56:58.777Z,15.90
2019-02-15T11:57:58.753Z,15.98
2019-02-15T11:58:58.740Z,15.90
2019-02-15T11:59:58.725Z,15.95
2019-02-15T12:00:58.703Z,16.00
2019-02-15T12:02:05.874Z,16.00
2019-02-15T12:02:58.668Z,15.98
2019-02-15T12:03:58.651Z,15.98
2019-02-15T12:04:58.629Z,16.02
2019-02-15T12:05:58.615Z,16.00
2019-02-15T12:06:58.591Z,16.06
2019-02-15T12:07:58.576Z,16.03
2019-02-15T12:08:58.559Z,15.99
2019-02-15T12:09:58.538Z,16.09
2019-02-15T12:10:58.521Z,16.14
2019-02-15T12:11:58.526Z,16.10
2019-02-15T12:12:58.485Z,16.06
2019-02-15T12:13:58.480Z,16.08
2019-02-15T12:14:58.447Z,16.10
2019-02-15T12:15:58.426Z,16.22
2019-02-15T12:17:05.498Z,16.22
2019-02-15T12:17:58.388Z,16.26
2019-02-15T12:18:58.379Z,16.32
2019-02-15T12:19:58.357Z,16.25
2019-02-15T12:20:58.340Z,16.33
2019-02-15T12:21:58.320Z,16.25
2019-02-15T12:22:58.302Z,16.29
2019-02-15T12:23:58.285Z,16.37
2019-02-15T12:24:58.276Z,16.39
2019-02-15T12:25:58.247Z,16.42
2019-02-15T12:26:58.229Z,16.46
2019-02-15T12:27:58.211Z,16.55
2019-02-15T12:28:58.193Z,16.47
2019-02-15T12:29:58.178Z,16.47
2019-02-15T12:30:58.156Z,16.44
2019-02-15T12:31:58.133Z,16.52
2019-02-15T12:32:58.122Z,16.46
2019-02-15T12:33:58.101Z,16.44
2019-02-15T12:34:58.084Z,16.42
2019-02-15T12:35:58.067Z,16.52
2019-02-15T12:36:58.046Z,16.57
2019-02-15T12:37:58.031Z,16.47
2019-02-15T12:38:58.025Z,16.52
2019-02-15T12:39:58.005Z,16.59
2019-02-15T12:40:57.979Z,16.57
2019-02-15T12:41:57.977Z,16.59
2019-02-15T12:42:57.938Z,16.61
2019-02-15T12:43:57.929Z,16.64
2019-02-15T12:44:57.923Z,16.62
2019-02-15T12:45:57.884Z,16.70
2019-02-15T12:46:57.868Z,16.64
2019-02-15T12:47:57.852Z,16.61
2019-02-15T12:48:57.846Z,16.62
2019-02-15T12:49:57.819Z,16.64
2019-02-15T12:50:57.792Z,16.67
2019-02-15T12:51:57.780Z,16.69
2019-02-15T12:52:57.774Z,16.67
2019-02-15T12:53:57.741Z,16.76
2019-02-15T12:54:57.728Z,16.77
2019-02-15T12:55:57.713Z,16.79
2019-02-15T12:56:57.698Z,16.87
2019-02-15T12:57:57.679Z,16.91
2019-02-15T12:58:57.666Z,16.87
2019-02-15T12:59:57.634Z,16.80
2019-02-15T13:00:57.648Z,16.84
2019-02-15T13:01:57.616Z,16.84
2019-02-15T13:02:57.608Z,16.91
2019-02-15T13:03:57.582Z,16.94
2019-02-15T13:04:57.551Z,16.95
2019-02-15T13:05:57.551Z,16.97
2019-02-15T13:06:57.542Z,16.95
2019-02-15T13:07:57.492Z,16.99